createdAt,value
2023-03-11T00:02:23.942Z,8.10
2023-03-11T00:04:51.816Z,8.00
2023-03-11T00:07:19.303Z,8.00
2023-03-11T00:09:46.779Z,8.10
2023-03-11T00:12:13.433Z,8.10
2023-03-11T00:14:40.284Z,8.00
2023-03-11T00:17:07.077Z,8.10
2023-03-11T00:19:33.775Z,8.10
2023-03-11T00:22:02.587Z,8.00
2023-03-11T00:24:29.374Z,8.10
2023-03-11T00:26:56.032Z,8.00
2023-03-11T00:29:22.880Z,7.90
2023-03-11T00:31:49.727Z,8.00
2023-03-11T00:34:16.879Z,8.00
2023-03-11T00:36:43.609Z,8.10
2023-03-11T00:39:11.177Z,8.10
2023-03-11T00:41:38.037Z,8.00
2023-03-11T00:44:04.835Z,8.20
2023-03-11T00:46:33.547Z,8.10
2023-03-11T00:49:00.502Z,8.20
2023-03-11T00:51:28.141Z,8.20
2023-03-11T00:53:54.839Z,8.30
2023-03-11T00:56:21.572Z,8.30
2023-03-11T00:58:48.267Z,8.30
2023-03-11T01:01:18.992Z,8.30
2023-03-11T01:03:46.351Z,8.20
2023-03-11T01:06:13.509Z,8.10
2023-03-11T01:08:41.021Z,8.10
2023-03-11T01:11:08.376Z,8.20
2023-03-11T01:13:35.858Z,8.20
2023-03-11T01:16:02.890Z,8.20
2023-03-11T01:18:29.759Z,8.30
2023-03-11T01:20:56.673Z,8.30
2023-03-11T01:23:23.671Z,8.30
2023-03-11T01:25:50.484Z,8.10
2023-03-11T01:28:17.303Z,7.80
2023-03-11T01:30:44.400Z,7.70
2023-03-11T01:33:16.999Z,7.60
2023-03-11T01:35:44.546Z,7.60
2023-03-11T01:38:12.454Z,7.50
2023-03-11T01:40:45.251Z,7.50
2023-03-11T01:43:36.836Z,7.50
2023-03-11T01:46:21.152Z,7.50
2023-03-11T01:48:59.209Z,7.50
2023-03-11T01:51:30.688Z,7.40
2023-03-11T01:54:01.804Z,7.40
2023-03-11T01:56:28.799Z,7.50
2023-03-11T01:58:55.897Z,7.70
2023-03-11T02:01:22.923Z,7.60
2023-03-11T02:03:49.907Z,7.60
2023-03-11T02:06:20.437Z,7.50
2023-03-11T02:08:47.770Z,7.40
2023-03-11T02:11:21.520Z,7.30
2023-03-11T02:13:49.236Z,7.40
2023-03-11T02:16:17.024Z,7.30
2023-03-11T02:18:44.462Z,7.30
2023-03-11T02:21:25.137Z,7.30
2023-03-11T02:24:15.315Z,7.40
2023-03-11T02:26:57.537Z,7.50
2023-03-11T02:29:26.429Z,7.60
2023-03-11T02:31:54.770Z,7.50
2023-03-11T02:34:35.995Z,7.40
2023-03-11T02:37:09.279Z,7.40
2023-03-11T02:39:42.059Z,7.50
2023-03-11T02:42:25.111Z,7.50
2023-03-11T02:45:13.527Z,7.60
2023-03-11T02:47:41.123Z,7.50
2023-03-11T02:50:11.048Z,7.50
2023-03-11T02:52:38.136Z,7.40
2023-03-11T02:55:06.168Z,7.50
2023-03-11T02:57:32.807Z,7.50
2023-03-11T03:00:06.375Z,7.50
2023-03-11T03:02:33.088Z,7.40
2023-03-11T03:04:59.848Z,7.30
2023-03-11T03:07:26.480Z,7.30
2023-03-11T03:09:53.290Z,7.30
2023-03-11T03:12:19.969Z,7.30
2023-03-11T03:14:46.767Z,7.20
2023-03-11T03:17:13.737Z,7.30
2023-03-11T03:19:40.472Z,7.20
2023-03-11T03:22:07.305Z,7.30
2023-03-11T03:24:34.147Z,7.70
2023-03-11T03:27:00.854Z,7.90
2023-03-11T03:29:27.583Z,8.00
2023-03-11T03:31:54.878Z,8.00
2023-03-11T03:34:21.537Z,8.10
2023-03-11T03:36:48.269Z,8.10
2023-03-11T03:39:14.919Z,8.20
2023-03-11T03:41:41.751Z,8.20
2023-03-11T03:44:08.565Z,8.10
2023-03-11T03:46:35.563Z,8.20
2023-03-11T03:49:02.364Z,8.30
2023-03-11T03:51:29.027Z,8.20
2023-03-11T03:53:55.794Z,8.30
2023-03-11T03:56:22.551Z,8.20
2023-03-11T03:58:49.218Z,8.30
2023-03-11T04:01:15.983Z,8.30
2023-03-11T04:03:43.817Z,8.30
2023-03-11T04:06:23.021Z,8.20
2023-03-11T04:08:51.863Z,8.30
2023-03-11T04:11:19.137Z,8.20
2023-03-11T04:13:45.983Z,8.20
2023-03-11T04:16:19.737Z,8.20
2023-03-11T04:18:46.884Z,8.20
2023-03-11T04:21:13.618Z,8.20
2023-03-11T04:23:40.389Z,8.20
2023-03-11T04:26:07.370Z,8.30
2023-03-11T04:28:34.134Z,8.30
2023-03-11T04:31:00.870Z,8.30
2023-03-11T04:33:27.692Z,8.30
2023-03-11T04:35:54.505Z,8.30
2023-03-11T04:38:21.281Z,8.40
2023-03-11T04:40:48.164Z,8.30
2023-03-11T04:43:14.931Z,8.40
2023-03-11T04:45:45.003Z,8.40
2023-03-11T04:48:11.759Z,8.30
2023-03-11T04:50:38.395Z,8.40
2023-03-11T04:53:05.127Z,8.30
2023-03-11T04:55:33.250Z,8.40
2023-03-11T04:57:59.953Z,8.40
2023-03-11T05:00:26.677Z,8.40
2023-03-11T05:02:54.561Z,8.40
2023-03-11T05:05:21.389Z,8.40
2023-03-11T05:07:49.179Z,8.40
2023-03-11T05:10:22.364Z,8.40
2023-03-11T05:12:52.843Z,8.40
2023-03-11T05:15:19.788Z,8.40
2023-03-11T05:17:46.740Z,8.50
2023-03-11T05:20:15.637Z,8.50
2023-03-11T05:22:42.612Z,8.50
2023-03-11T05:25:09.860Z,8.50
2023-03-11T05:27:36.713Z,8.50
2023-03-11T05:30:03.714Z,8.50
2023-03-11T05:32:31.475Z,8.50
2023-03-11T05:34:58.260Z,8.60
2023-03-11T05:37:25.306Z,8.60
2023-03-11T05:39:52.777Z,8.60
2023-03-11T05:42:21.363Z,8.60
2023-03-11T05:44:48.336Z,8.60
2023-03-11T05:47:19.442Z,8.60
2023-03-11T05:49:48.635Z,8.60
2023-03-11T05:52:15.824Z,8.60
2023-03-11T05:54:42.883Z,8.60
2023-03-11T05:57:09.595Z,8.70
2023-03-11T05:59:37.684Z,8.60
2023-03-11T06:02:04.670Z,8.70
2023-03-11T06:04:31.761Z,8.60
2023-03-11T06:06:58.637Z,8.60
2023-03-11T06:09:25.953Z,8.60
2023-03-11T06:11:52.796Z,8.40
2023-03-11T06:14:19.581Z,8.30
2023-03-11T06:16:46.293Z,8.30
2023-03-11T06:19:13.421Z,8.30
2023-03-11T06:21:40.479Z,8.30
2023-03-11T06:24:07.455Z,8.20
2023-03-11T06:26:34.266Z,8.30
2023-03-11T06:29:01.993Z,8.20
2023-03-11T06:31:29.902Z,8.20
2023-03-11T06:33:56.984Z,8.30
2023-03-11T06:36:23.990Z,8.40
2023-03-11T06:38:54.527Z,8.50
2023-03-11T06:41:21.261Z,9.00
2023-03-11T06:43:48.003Z,9.30
2023-03-11T06:46:20.649Z,9.40
2023-03-11T06:48:47.771Z,6.20
2023-03-11T06:51:14.707Z,4.70
2023-03-11T06:53:41.633Z,4.30
2023-03-11T06:56:11.553Z,4.10
2023-03-11T06:58:39.756Z,3.80
2023-03-11T07:01:13.581Z,3.60
2023-03-11T07:03:40.871Z,3.60
2023-03-11T07:06:20.415Z,3.60
2023-03-11T07:08:51.767Z,2.70
2023-03-11T07:11:26.741Z,2.70
2023-03-11T07:13:54.755Z,2.70
2023-03-11T07:16:26.601Z,2.40
2023-03-11T07:18:56.641Z,2.70
2023-03-11T07:21:24.078Z,2.80
2023-03-11T07:23:56.124Z,3.30
2023-03-11T07:26:23.475Z,3.60
2023-03-11T07:28:50.385Z,3.60
2023-03-11T07:31:19.943Z,4.00
2023-03-11T07:33:47.535Z,4.80
2023-03-11T07:36:17.036Z,5.30
2023-03-11T07:38:44.728Z,5.50
2023-03-11T07:41:13.061Z,5.20
2023-03-11T07:43:41.372Z,5.00
2023-03-11T07:46:13.154Z,5.00
2023-03-11T07:48:40.870Z,4.60
2023-03-11T07:51:15.979Z,4.50
2023-03-11T07:53:43.477Z,4.80
2023-03-11T07:56:12.633Z,5.40
2023-03-11T07:58:40.550Z,5.80
2023-03-11T08:01:10.755Z,6.30
2023-03-11T08:03:38.617Z,6.00
2023-03-11T08:06:20.564Z,5.40
2023-03-11T08:08:48.685Z,5.50
2023-03-11T08:11:17.599Z,5.70
2023-03-11T08:13:46.483Z,5.80
2023-03-11T08:16:15.913Z,5.90
2023-03-11T08:18:45.052Z,6.10
2023-03-11T08:21:14.211Z,6.20
2023-03-11T08:23:41.495Z,6.50
2023-03-11T08:26:11.088Z,6.40
2023-03-11T08:28:38.400Z,6.30
2023-03-11T08:31:24.373Z,6.30
2023-03-11T08:33:53.621Z,6.40
2023-03-11T08:36:21.274Z,6.50
2023-03-11T08:38:48.682Z,6.60
2023-03-11T08:41:16.195Z,6.70
2023-03-11T08:43:44.555Z,6.50
2023-03-11T08:46:26.452Z,6.60
2023-03-11T08:48:54.511Z,6.70
2023-03-11T08:51:22.761Z,6.60
2023-03-11T08:53:51.049Z,6.40
2023-03-11T08:56:18.793Z,6.60
2023-03-11T08:58:46.348Z,6.90
2023-03-11T09:01:13.886Z,7.00
2023-03-11T09:03:41.077Z,6.70
2023-03-11T09:06:11.975Z,8.00
2023-03-11T09:08:38.903Z,8.30
2023-03-11T09:11:06.201Z,8.30
2023-03-11T09:13:33.180Z,8.60
2023-03-11T09:16:00.304Z,8.10
2023-03-11T09:18:29.538Z,7.60
2023-03-11T09:20:58.379Z,7.30
2023-03-11T09:23:25.349Z,7.10
2023-03-11T09:25:52.227Z,7.20
2023-03-11T09:28:19.000Z,8.30
2023-03-11T09:30:45.967Z,8.90
2023-03-11T09:33:12.946Z,9.20
2023-03-11T09:35:39.809Z,9.70
2023-03-11T09:38:06.615Z,9.30
2023-03-11T09:40:57.934Z,9.40
2023-03-11T09:43:35.126Z,9.30
2023-03-11T09:46:25.156Z,9.30
2023-03-11T09:49:36.943Z,9.40
2023-03-11T09:52:11.322Z,9.40
2023-03-11T09:54:42.422Z,9.50
2023-03-11T09:57:32.366Z,9.50
2023-03-11T10:00:02.704Z,9.40
2023-03-11T10:02:30.610Z,9.40
2023-03-11T10:05:42.762Z,9.50
2023-03-11T10:08:27.829Z,9.60
2023-03-11T10:11:24.831Z,9.50
2023-03-11T10:14:34.072Z,10.00
2023-03-11T10:17:19.800Z,9.90
2023-03-11T10:19:52.563Z,10.00
2023-03-11T10:22:38.958Z,10.10
2023-03-11T10:25:16.994Z,10.10
2023-03-11T10:27:48.604Z,10.10
2023-03-11T10:30:32.655Z,10.50
2023-03-11T10:33:08.009Z,10.60
2023-03-11T10:35:39.771Z,10.00
2023-03-11T10:38:36.279Z,10.30
2023-03-11T10:41:32.758Z,10.20
2023-03-11T10:44:05.904Z,10.70
2023-03-11T10:46:33.049Z,10.60
2023-03-11T10:48:59.705Z,10.70
2023-03-11T10:51:33.588Z,10.30
2023-03-11T10:54:01.778Z,10.20
2023-03-11T10:56:37.657Z,10.10
2023-03-11T10:59:18.949Z,10.40
2023-03-11T11:01:55.597Z,10.50
2023-03-11T11:04:35.917Z,10.90
2023-03-11T11:07:24.503Z,10.40
2023-03-11T11:10:16.546Z,10.70
2023-03-11T11:13:10.924Z,11.00
2023-03-11T11:15:41.651Z,11.00
2023-03-11T11:18:46.283Z,10.90
2023-03-11T11:21:28.440Z,10.70
2023-03-11T11:24:22.556Z,10.80
2023-03-11T11:27:18.575Z,10.60
2023-03-11T11:29:47.016Z,11.60
2023-03-11T11:32:24.189Z,11.10
2023-03-11T11:35:12.778Z,11.30
2023-03-11T11:37:43.809Z,10.40
2023-03-11T11:40:19.687Z,10.40
2023-03-11T11:42:51.417Z,10.50
2023-03-11T11:45:35.099Z,10.60
2023-03-11T11:48:14.879Z,10.70
2023-03-11T11:50:45.457Z,11.40
2023-03-11T11:53:35.329Z,11.10
2023-03-11T11:56:03.269Z,11.40
2023-03-11T11:58:31.334Z,11.00
2023-03-11T12:01:16.087Z,10.70
2023-03-11T12:04:03.533Z,10.90
2023-03-11T12:06:51.745Z,11.20
2023-03-11T12:09:24.565Z,11.10
2023-03-11T12:12:21.678Z,10.80
2023-03-11T12:14:59.571Z,11.50
2023-03-11T12:17:29.778Z,11.60
2023-03-11T12:20:08.643Z,10.80
2023-03-11T12:22:54.271Z,11.00
2023-03-11T12:25:43.913Z,11.20
2023-03-11T12:28:19.833Z,11.60
2023-03-11T12:30:52.738Z,11.60
2023-03-11T12:33:36.984Z,10.20
2023-03-11T12:36:05.695Z,10.10
2023-03-11T12:38:46.518Z,11.10
2023-03-11T12:41:42.772Z,11.80
2023-03-11T12:44:31.696Z,11.90
2023-03-11T12:46:58.412Z,11.60
2023-03-11T12:49:30.712Z,11.00
2023-03-11T12:52:23.250Z,11.30
2023-03-11T12:54:59.209Z,11.80
2023-03-11T12:57:35.713Z,11.40
2023-03-11T13:00:18.262Z,11.60
2023-03-11T13:03:12.612Z,11.70
2023-03-11T13:06:00.770Z,11.60
2023-03-11T13:08:33.004Z,12.40
2023-03-11T13:10:59.717Z,11.80
2023-03-11T13:13:43.106Z,11.80
2023-03-11T13:16:12.606Z,12.50
2023-03-11T13:18:41.042Z,12.40
2023-03-11T13:21:32.704Z,12.10
2023-03-11T13:24:30.223Z,11.80
2023-03-11T13:27:00.529Z,12.10
2023-03-11T13:30:00.887Z,11.90
2023-03-11T13:32:39.788Z,12.20
2023-03-11T13:35:48.312Z,11.60
2023-03-11T13:38:35.047Z,11.70
2023-03-11T13:41:04.625Z,12.10
2023-03-11T13:43:31.493Z,11.20
2023-03-11T13:46:13.009Z,11.40
2023-03-11T13:48:45.222Z,11.50
2023-03-11T13:51:24.479Z,11.80
2023-03-11T13:54:16.187Z,11.50
2023-03-11T13:56:51.697Z,11.80
2023-03-11T13:59:27.306Z,11.80
2023-03-11T14:02:21.553Z,12.10
2023-03-11T14:04:52.718Z,12.60
2023-03-11T14:07:29.886Z,12.10
2023-03-11T14:10:11.929Z,12.50
2023-03-11T14:12:40.116Z,12.30
2023-03-11T14:15:09.285Z,12.10
2023-03-11T14:17:36.081Z,12.10
2023-03-11T14:20:18.330Z,12.20
2023-03-11T14:22:47.850Z,13.00
2023-03-11T14:25:24.328Z,13.60
2023-03-11T14:28:02.986Z,13.60
2023-03-11T14:30:32.145Z,12.40
2023-03-11T14:33:05.201Z,12.40
2023-03-11T14:35:33.780Z,12.50
2023-03-11T14:38:01.000Z,12.30
2023-03-11T14:40:31.064Z,11.80
2023-03-11T14:43:06.687Z,12.50
2023-03-11T14:45:37.294Z,12.60
2023-03-11T14:48:13.180Z,12.20
2023-03-11T14:50:40.069Z,12.50
2023-03-11T14:53:19.475Z,12.90
2023-03-11T14:55:55.754Z,13.00
2023-03-11T14:58:34.737Z,12.80
2023-03-11T15:01:04.252Z,12.20
2023-03-11T15:03:37.636Z,12.20
2023-03-11T15:06:13.823Z,10.60
2023-03-11T15:08:50.902Z,12.40
2023-03-11T15:11:19.170Z,12.10
2023-03-11T15:13:50.555Z,11.90
2023-03-11T15:16:35.820Z,12.10
2023-03-11T15:19:23.929Z,11.30
2023-03-11T15:21:54.479Z,12.20
2023-03-11T15:24:27.893Z,12.10
2023-03-11T15:26:57.978Z,11.80
2023-03-11T15:29:26.491Z,12.40
2023-03-11T15:31:53.566Z,12.40
2023-03-11T15:34:27.062Z,12.00
2023-03-11T15:36:55.395Z,12.60
2023-03-11T15:39:31.417Z,12.00
2023-03-11T15:42:10.495Z,12.30
2023-03-11T15:44:52.674Z,12.40
2023-03-11T15:47:23.561Z,11.50
2023-03-11T15:49:51.120Z,11.50
2023-03-11T15:52:19.965Z,12.00
2023-03-11T15:54:55.045Z,12.10
2023-03-11T15:57:27.361Z,12.10
2023-03-11T15:59:56.879Z,12.50
2023-03-11T16:02:27.577Z,12.40
2023-03-11T16:04:55.223Z,12.30
2023-03-11T16:07:38.056Z,12.40
2023-03-11T16:10:06.803Z,12.30
2023-03-11T16:12:33.551Z,11.90
2023-03-11T16:15:00.404Z,11.90
2023-03-11T16:17:31.875Z,12.20
2023-03-11T16:20:06.923Z,11.60
2023-03-11T16:22:36.816Z,11.30
2023-03-11T16:25:07.163Z,12.10
2023-03-11T16:27:34.459Z,11.90
2023-03-11T16:30:01.580Z,12.30
2023-03-11T16:32:28.296Z,12.20
2023-03-11T16:34:55.177Z,12.30
2023-03-11T16:37:21.903Z,12.40
2023-03-11T16:39:48.750Z,12.50
2023-03-11T16:42:23.053Z,12.30
2023-03-11T16:44:50.328Z,12.40
2023-03-11T16:47:17.169Z,12.40
2023-03-11T16:49:43.932Z,12.30
2023-03-11T16:52:10.836Z,12.40
2023-03-11T16:54:37.587Z,12.30
2023-03-11T16:57:04.397Z,12.20
2023-03-11T16:59:31.100Z,12.20
2023-03-11T17:01:58.059Z,12.20
2023-03-11T17:04:24.780Z,12.20
2023-03-11T17:06:51.439Z,12.20
2023-03-11T17:09:18.113Z,12.30
2023-03-11T17:11:44.843Z,12.20
2023-03-11T17:14:16.693Z,12.20
2023-03-11T17:16:45.239Z,12.10
2023-03-11T17:19:12.314Z,11.80
2023-03-11T17:21:39.617Z,11.40
2023-03-11T17:24:07.240Z,11.50
2023-03-11T17:26:34.133Z,11.60
2023-03-11T17:29:00.851Z,11.50
2023-03-11T17:31:29.727Z,11.30
2023-03-11T17:33:59.116Z,11.20
2023-03-11T17:36:26.177Z,11.20
2023-03-11T17:38:54.200Z,11.10
2023-03-11T17:41:21.951Z,11.10
2023-03-11T17:43:51.316Z,10.90
2023-03-11T17:46:20.576Z,11.00
2023-03-11T17:48:48.559Z,11.10
2023-03-11T17:51:18.032Z,11.20
2023-03-11T17:53:46.312Z,11.00
2023-03-11T17:56:14.997Z,11.00
2023-03-11T17:58:41.990Z,11.00
2023-03-11T18:01:15.221Z,11.00
2023-03-11T18:03:42.614Z,10.90
2023-03-11T18:06:10.376Z,11.10
2023-03-11T18:08:37.207Z,11.20
2023-03-11T18:11:09.290Z,11.20
2023-03-11T18:13:37.854Z,11.20
2023-03-11T18:16:17.412Z,11.20
2023-03-11T18:18:45.255Z,11.40
2023-03-11T18:21:13.228Z,11.40
2023-03-11T18:23:41.270Z,11.50
2023-03-11T18:26:10.355Z,12.50
2023-03-11T18:28:37.133Z,12.00
2023-03-11T18:31:11.760Z,11.80
2023-03-11T18:33:38.939Z,11.70
2023-03-11T18:36:33.529Z,11.50
2023-03-11T18:39:01.689Z,11.50
2023-03-11T18:41:31.590Z,11.60
2023-03-11T18:43:58.984Z,11.50
2023-03-11T18:46:28.510Z,11.50
2023-03-11T18:48:59.184Z,11.30
2023-03-11T18:51:30.529Z,11.30
2023-03-11T18:53:57.581Z,11.30
2023-03-11T18:56:24.322Z,11.20
2023-03-11T18:58:51.253Z,11.10
2023-03-11T19:01:20.387Z,11.20
2023-03-11T19:03:54.156Z,11.20
2023-03-11T19:06:22.167Z,11.00
2023-03-11T19:08:49.218Z,9.90
2023-03-11T19:11:18.936Z,9.20
2023-03-11T19:13:47.266Z,8.10
2023-03-11T19:16:16.569Z,7.70
2023-03-11T19:18:43.391Z,7.20
2023-03-11T19:21:12.112Z,7.20
2023-03-11T19:23:39.178Z,7.10
2023-03-11T19:26:06.239Z,7.00
2023-03-11T19:28:33.372Z,6.80
2023-03-11T19:31:00.269Z,6.60
2023-03-11T19:33:27.446Z,6.60
2023-03-11T19:35:57.778Z,6.50
2023-03-11T19:38:24.937Z,6.60
2023-03-11T19:41:01.892Z,6.90
2023-03-11T19:43:29.257Z,6.80
2023-03-11T19:45:56.618Z,6.80
2023-03-11T19:48:23.647Z,6.80
2023-03-11T19:50:51.635Z,7.10
2023-03-11T19:53:19.362Z,6.60
2023-03-11T19:55:48.167Z,6.10
2023-03-11T19:58:15.257Z,6.00
2023-03-11T20:00:43.262Z,5.80
2023-03-11T20:03:11.560Z,5.10
2023-03-11T20:05:43.001Z,5.80
2023-03-11T20:08:12.415Z,6.20
2023-03-11T20:10:45.058Z,5.70
2023-03-11T20:13:12.485Z,6.60
2023-03-11T20:15:39.332Z,7.60
2023-03-11T20:18:07.265Z,8.00
2023-03-11T20:20:37.409Z,7.70
2023-03-11T20:23:04.249Z,7.30
2023-03-11T20:25:32.352Z,7.40
2023-03-11T20:28:00.489Z,7.60
2023-03-11T20:30:28.912Z,7.80
2023-03-11T20:32:55.999Z,7.50
2023-03-11T20:35:23.075Z,7.40
2023-03-11T20:37:49.838Z,7.30
2023-03-11T20:40:18.626Z,7.20
2023-03-11T20:42:47.300Z,7.10
2023-03-11T20:45:21.726Z,6.80
2023-03-11T20:47:49.825Z,6.80
2023-03-11T20:50:17.268Z,6.70
2023-03-11T20:52:44.080Z,6.40
2023-03-11T20:55:11.625Z,6.50
2023-03-11T20:57:39.898Z,6.40
2023-03-11T21:00:11.583Z,6.60
2023-03-11T21:02:40.829Z,6.60
2023-03-11T21:05:09.566Z,6.70
2023-03-11T21:07:37.536Z,6.50
2023-03-11T21:10:07.114Z,6.70
2023-03-11T21:12:33.870Z,6.40
2023-03-11T21:15:00.735Z,5.70
2023-03-11T21:17:27.478Z,7.10
2023-03-11T21:19:54.427Z,7.20
2023-03-11T21:22:21.158Z,6.80
2023-03-11T21:24:54.662Z,6.40
2023-03-11T21:27:26.375Z,6.30
2023-03-11T21:29:57.695Z,6.30
2023-03-11T21:32:26.290Z,6.30
2023-03-11T21:34:58.624Z,6.10
2023-03-11T21:37:26.269Z,6.00
2023-03-11T21:39:53.120Z,6.10
2023-03-11T21:42:20.267Z,5.80
2023-03-11T21:44:47.252Z,5.80
2023-03-11T21:47:15.229Z,5.90
2023-03-11T21:49:42.098Z,5.90
2023-03-11T21:52:08.753Z,6.40
2023-03-11T21:54:35.619Z,8.00
2023-03-11T21:57:02.481Z,8.30
2023-03-11T21:59:30.056Z,8.00
2023-03-11T22:02:01.229Z,8.00
2023-03-11T22:04:28.673Z,8.20
2023-03-11T22:06:57.694Z,8.20
2023-03-11T22:09:25.812Z,8.20
2023-03-11T22:11:52.785Z,8.10
2023-03-11T22:14:20.577Z,8.20
2023-03-11T22:16:47.705Z,8.20
2023-03-11T22:19:14.667Z,8.20
2023-03-11T22:21:41.682Z,8.20
2023-03-11T22:24:08.605Z,8.30
2023-03-11T22:26:35.450Z,8.30
2023-03-11T22:29:04.163Z,8.30
2023-03-11T22:31:31.235Z,8.30
2023-03-11T22:33:58.299Z,8.30
2023-03-11T22:36:25.058Z,8.30
2023-03-11T22:38:51.736Z,8.30
2023-03-11T22:41:20.212Z,8.20
2023-03-11T22:43:47.973Z,8.30
2023-03-11T22:46:14.900Z,8.30
2023-03-11T22:48:42.043Z,8.30
2023-03-11T22:51:08.983Z,8.30
2023-03-11T22:53:35.918Z,8.20
2023-03-11T22:56:08.266Z,8.30
2023-03-11T22:58:35.996Z,8.30
2023-03-11T23:01:04.059Z,8.20
2023-03-11T23:03:33.315Z,8.10
2023-03-11T23:06:02.128Z,8.20
2023-03-11T23:08:28.954Z,8.20
2023-03-11T23:10:55.888Z,8.30
2023-03-11T23:13:23.066Z,8.20
2023-03-11T23:15:49.800Z,8.20
2023-03-11T23:18:16.816Z,8.30
2023-03-11T23:20:44.173Z,8.30
2023-03-11T23:23:11.872Z,8.20
2023-03-11T23:25:39.942Z,8.20
2023-03-11T23:28:06.897Z,8.10
2023-03-11T23:30:33.774Z,8.10
2023-03-11T23:33:02.860Z,8.10
2023-03-11T23:35:30.545Z,8.00
2023-03-11T23:37:57.284Z,7.80
2023-03-11T23:40:25.434Z,8.00
2023-03-11T23:42:52.198Z,8.10
2023-03-11T23:45:19.276Z,7.90
2023-03-11T23:47:46.074Z,7.90
2023-03-11T23:50:12.782Z,8.00
2023-03-11T23:52:39.564Z,7.90
2023-03-11T23:55:06.903Z,8.10
2023-03-11T23:57:36.855Z,8.20
